createdAt,value
2023-03-04T00:02:14.428Z,34.67
2023-03-04T00:04:41.249Z,32.43
2023-03-04T00:07:08.126Z,33.70
2023-03-04T00:09:34.880Z,33.90
2023-03-04T00:12:01.566Z,33.13
2023-03-04T00:14:30.348Z,31.00
2023-03-04T00:16:57.275Z,34.13
2023-03-04T00:19:24.070Z,31.63
2023-03-04T00:21:50.855Z,33.93
2023-03-04T00:24:17.684Z,32.13
2023-03-04T00:26:44.542Z,31.43
2023-03-04T00:29:11.224Z,30.70
2023-03-04T00:31:38.092Z,35.53
2023-03-04T00:34:05.024Z,32.90
2023-03-04T00:36:31.717Z,29.43
2023-03-04T00:38:58.478Z,32.67
2023-03-04T00:41:25.397Z,31.30
2023-03-04T00:43:52.241Z,32.50
2023-03-04T00:46:19.062Z,33.10
2023-03-04T00:48:45.806Z,29.43
2023-03-04T00:51:12.609Z,31.73
2023-03-04T00:53:39.381Z,31.27
2023-03-04T00:56:06.748Z,31.03
2023-03-04T00:58:33.514Z,29.77
2023-03-04T01:01:00.222Z,30.47
2023-03-04T01:03:29.745Z,29.60
2023-03-04T01:05:56.448Z,29.83
2023-03-04T01:08:23.132Z,28.87
2023-03-04T01:10:49.885Z,31.20
2023-03-04T01:13:16.709Z,30.20
2023-03-04T01:15:43.561Z,33.07
2023-03-04T01:18:10.844Z,32.57
2023-03-04T01:20:37.636Z,33.20
2023-03-04T01:23:04.444Z,31.53
2023-03-04T01:25:31.421Z,31.40
2023-03-04T01:27:58.213Z,29.10
2023-03-04T01:30:24.998Z,31.00
2023-03-04T01:32:51.723Z,30.97
2023-03-04T01:35:18.466Z,30.30
2023-03-04T01:37:45.351Z,31.53
2023-03-04T01:40:13.615Z,31.87
2023-03-04T01:42:40.845Z,31.70
2023-03-04T01:45:11.465Z,32.13
2023-03-04T01:47:38.149Z,30.50
2023-03-04T01:50:12.170Z,31.17
2023-03-04T01:52:40.724Z,31.10
2023-03-04T01:55:31.119Z,30.87
2023-03-04T01:57:57.976Z,30.37
2023-03-04T02:00:32.291Z,32.90
2023-03-04T02:03:04.180Z,32.50
2023-03-04T02:05:31.336Z,31.53
2023-03-04T02:07:59.697Z,29.00
2023-03-04T02:10:26.958Z,32.37
2023-03-04T02:12:54.373Z,30.23
2023-03-04T02:15:21.365Z,29.97
2023-03-04T02:17:48.254Z,31.77
2023-03-04T02:20:43.667Z,30.00
2023-03-04T02:23:45.840Z,29.57
2023-03-04T02:26:30.113Z,26.60
2023-03-04T02:28:59.141Z,29.43
2023-03-04T02:31:33.808Z,30.53
2023-03-04T02:34:36.298Z,28.87
2023-03-04T02:37:04.521Z,29.43
2023-03-04T02:39:39.546Z,29.67
2023-03-04T02:42:06.411Z,29.03
2023-03-04T02:44:35.920Z,29.63
2023-03-04T02:47:05.097Z,28.17
2023-03-04T02:49:33.514Z,29.80
2023-03-04T02:52:06.722Z,28.73
2023-03-04T02:54:33.727Z,29.00
2023-03-04T02:57:03.204Z,26.53
2023-03-04T02:59:30.211Z,29.37
2023-03-04T03:01:57.604Z,27.50
2023-03-04T03:04:25.980Z,29.37
2023-03-04T03:06:53.039Z,28.77
2023-03-04T03:09:20.558Z,30.37
2023-03-04T03:11:47.331Z,34.90
2023-03-04T03:14:14.059Z,35.63
2023-03-04T03:16:40.839Z,38.23
2023-03-04T03:19:07.533Z,40.10
2023-03-04T03:21:34.261Z,44.33
2023-03-04T03:24:01.044Z,45.37
2023-03-04T03:26:27.722Z,46.30
2023-03-04T03:28:54.512Z,47.23
2023-03-04T03:31:21.324Z,44.00
2023-03-04T03:33:48.261Z,45.23
2023-03-04T03:36:14.966Z,44.87
2023-03-04T03:38:42.885Z,45.27
2023-03-04T03:41:09.639Z,43.77
2023-03-04T03:43:36.477Z,42.27
2023-03-04T03:46:03.330Z,44.50
2023-03-04T03:48:30.136Z,39.33
2023-03-04T03:50:56.868Z,42.17
2023-03-04T03:53:23.555Z,42.80
2023-03-04T03:55:50.342Z,41.23
2023-03-04T03:58:17.120Z,43.43
2023-03-04T04:00:43.832Z,41.53
2023-03-04T04:03:15.261Z,44.67
2023-03-04T04:05:41.984Z,41.43
2023-03-04T04:08:13.317Z,38.87
2023-03-04T04:10:40.821Z,39.17
2023-03-04T04:13:07.519Z,36.23
2023-03-04T04:15:34.245Z,36.40
2023-03-04T04:18:00.994Z,32.43
2023-03-04T04:20:27.774Z,34.40
2023-03-04T04:22:54.457Z,33.73
2023-03-04T04:25:21.198Z,34.00
2023-03-04T04:27:47.977Z,31.27
2023-03-04T04:30:14.888Z,31.90
2023-03-04T04:32:41.664Z,31.67
2023-03-04T04:35:09.102Z,29.00
2023-03-04T04:37:35.824Z,31.90
2023-03-04T04:40:03.759Z,27.90
2023-03-04T04:42:30.592Z,30.10
2023-03-04T04:44:57.759Z,28.47
2023-03-04T04:47:24.622Z,29.73
2023-03-04T04:49:51.897Z,28.67
2023-03-04T04:52:18.649Z,28.07
2023-03-04T04:54:45.422Z,26.83
2023-03-04T04:57:12.190Z,27.63
2023-03-04T04:59:38.950Z,29.27
2023-03-04T05:02:05.603Z,28.10
2023-03-04T05:04:32.371Z,25.40
2023-03-04T05:06:59.118Z,26.20
2023-03-04T05:09:25.854Z,28.60
2023-03-04T05:11:52.718Z,26.13
2023-03-04T05:14:19.552Z,26.13
2023-03-04T05:16:46.320Z,25.33
2023-03-04T05:19:13.012Z,25.30
2023-03-04T05:21:39.825Z,27.73
2023-03-04T05:24:06.817Z,27.70
2023-03-04T05:26:33.624Z,27.53
2023-03-04T05:29:00.352Z,28.23
2023-03-04T05:31:27.214Z,27.83
2023-03-04T05:33:54.156Z,28.87
2023-03-04T05:36:21.050Z,27.77
2023-03-04T05:38:47.886Z,25.73
2023-03-04T05:41:14.634Z,25.90
2023-03-04T05:43:42.990Z,27.40
2023-03-04T05:46:15.029Z,27.37
2023-03-04T05:48:42.490Z,26.50
2023-03-04T05:51:09.770Z,26.43
2023-03-04T05:53:37.165Z,27.70
2023-03-04T05:56:11.657Z,26.67
2023-03-04T05:58:38.449Z,28.40
2023-03-04T06:01:05.404Z,28.63
2023-03-04T06:03:33.212Z,29.33
2023-03-04T06:06:00.113Z,27.30
2023-03-04T06:08:27.848Z,29.80
2023-03-04T06:10:57.084Z,30.00
2023-03-04T06:13:24.120Z,30.70
2023-03-04T06:15:55.629Z,30.83
2023-03-04T06:18:23.537Z,31.73
2023-03-04T06:20:50.589Z,30.00
2023-03-04T06:23:17.635Z,30.43
2023-03-04T06:25:44.442Z,29.70
2023-03-04T06:28:11.319Z,29.60
2023-03-04T06:30:38.188Z,30.20
2023-03-04T06:33:05.046Z,29.10
2023-03-04T06:35:31.866Z,29.80
2023-03-04T06:37:58.801Z,29.83
2023-03-04T06:40:25.671Z,30.00
2023-03-04T06:42:52.464Z,29.83
2023-03-04T06:45:19.294Z,30.73
2023-03-04T06:47:46.128Z,29.67
2023-03-04T06:50:13.354Z,31.63
2023-03-04T06:52:40.382Z,31.60
2023-03-04T06:55:09.110Z,34.70
2023-03-04T06:57:36.265Z,30.33
2023-03-04T07:00:03.641Z,32.93
2023-03-04T07:02:30.554Z,32.50
2023-03-04T07:04:57.324Z,31.60
2023-03-04T07:07:26.234Z,33.60
2023-03-04T07:09:53.012Z,32.60
2023-03-04T07:12:19.747Z,32.50
2023-03-04T07:14:46.444Z,30.73
2023-03-04T07:17:13.262Z,31.57
2023-03-04T07:19:40.526Z,29.20
2023-03-04T07:22:07.553Z,29.40
2023-03-04T07:24:34.542Z,31.23
2023-03-04T07:27:01.423Z,31.23
2023-03-04T07:29:28.167Z,29.20
2023-03-04T07:31:55.623Z,29.17
2023-03-04T07:34:22.548Z,31.10
2023-03-04T07:36:49.247Z,30.47
2023-03-04T07:39:16.026Z,29.33
2023-03-04T07:41:42.796Z,30.50
2023-03-04T07:44:13.264Z,30.90
2023-03-04T07:46:40.452Z,33.43
2023-03-04T07:49:07.311Z,29.30
2023-03-04T07:51:35.019Z,28.17
2023-03-04T07:54:02.082Z,30.60
2023-03-04T07:56:31.557Z,29.57
2023-03-04T07:58:58.404Z,27.77
2023-03-04T08:01:31.699Z,29.77
2023-03-04T08:03:59.345Z,30.97
2023-03-04T08:06:26.938Z,31.47
2023-03-04T08:08:59.804Z,30.90
2023-03-04T08:11:27.951Z,30.00
2023-03-04T08:13:54.625Z,30.17
2023-03-04T08:16:23.264Z,30.57
2023-03-04T08:18:59.166Z,32.47
2023-03-04T08:21:27.538Z,32.63
2023-03-04T08:23:54.920Z,30.33
2023-03-04T08:26:23.775Z,31.20
2023-03-04T08:28:51.810Z,30.53
2023-03-04T08:31:19.513Z,31.50
2023-03-04T08:33:47.150Z,32.43
2023-03-04T08:36:15.931Z,32.50
2023-03-04T08:38:43.206Z,36.00
2023-03-04T08:41:10.771Z,36.17
2023-03-04T08:43:37.658Z,34.13
2023-03-04T08:46:05.350Z,31.63
2023-03-04T08:48:32.775Z,29.43
2023-03-04T08:51:00.062Z,32.17
2023-03-04T08:53:26.922Z,33.63
2023-03-04T08:55:53.751Z,30.83
2023-03-04T08:58:20.533Z,34.97
2023-03-04T09:00:48.648Z,39.33
2023-03-04T09:03:16.450Z,34.97
2023-03-04T09:05:45.814Z,31.30
2023-03-04T09:08:13.658Z,29.27
2023-03-04T09:10:40.738Z,29.47
2023-03-04T09:13:07.534Z,30.27
2023-03-04T09:15:37.667Z,30.83
2023-03-04T09:18:05.439Z,31.73
2023-03-04T09:20:32.752Z,30.23
2023-03-04T09:22:59.541Z,30.37
2023-03-04T09:25:26.278Z,30.93
2023-03-04T09:27:53.146Z,31.50
2023-03-04T09:30:20.357Z,32.77
2023-03-04T09:32:47.403Z,31.37
2023-03-04T09:35:14.311Z,29.83
2023-03-04T09:37:41.816Z,29.63
2023-03-04T09:40:16.158Z,30.90
2023-03-04T09:42:55.536Z,32.50
2023-03-04T09:45:26.916Z,28.43
2023-03-04T09:47:55.980Z,28.63
2023-03-04T09:50:23.058Z,27.00
2023-03-04T09:52:58.733Z,28.83
2023-03-04T09:55:39.338Z,33.63
2023-03-04T09:58:39.743Z,26.40
2023-03-04T10:01:31.624Z,26.70
2023-03-04T10:04:25.858Z,25.07
2023-03-04T10:06:54.674Z,24.37
2023-03-04T10:09:47.662Z,23.40
2023-03-04T10:12:17.468Z,24.97
2023-03-04T10:14:58.382Z,24.77
2023-03-04T10:17:36.962Z,26.60
2023-03-04T10:20:22.055Z,26.37
2023-03-04T10:22:56.248Z,26.23
2023-03-04T10:25:29.526Z,24.60
2023-03-04T10:28:04.818Z,25.40
2023-03-04T10:31:04.978Z,26.00
2023-03-04T10:33:37.027Z,28.30
2023-03-04T10:36:14.743Z,27.10
2023-03-04T10:38:42.625Z,28.70
2023-03-04T10:41:17.882Z,26.90
2023-03-04T10:44:00.025Z,26.10
2023-03-04T10:46:27.243Z,30.03
2023-03-04T10:48:54.535Z,30.60
2023-03-04T10:51:24.248Z,27.80
2023-03-04T10:54:07.398Z,28.00
2023-03-04T10:56:46.318Z,28.70
2023-03-04T10:59:35.395Z,29.20
2023-03-04T11:02:27.197Z,29.30
2023-03-04T11:05:32.774Z,30.70
2023-03-04T11:08:00.693Z,29.47
2023-03-04T11:10:36.276Z,31.43
2023-03-04T11:13:03.014Z,32.47
2023-03-04T11:15:49.784Z,28.00
2023-03-04T11:18:20.238Z,33.40
2023-03-04T11:20:49.668Z,32.00
2023-03-04T11:23:41.879Z,34.10
2023-03-04T11:26:14.816Z,32.20
2023-03-04T11:29:08.257Z,32.70
2023-03-04T11:31:43.324Z,31.80
2023-03-04T11:34:31.946Z,31.90
2023-03-04T11:37:29.470Z,35.07
2023-03-04T11:40:11.039Z,32.30
2023-03-04T11:43:04.806Z,34.53
2023-03-04T11:45:47.472Z,34.03
2023-03-04T11:48:40.230Z,38.33
2023-03-04T11:51:47.668Z,37.30
2023-03-04T11:54:19.952Z,35.63
2023-03-04T11:56:53.712Z,38.60
2023-03-04T11:59:29.949Z,36.60
2023-03-04T12:02:05.734Z,35.43
2023-03-04T12:04:51.335Z,37.77
2023-03-04T12:07:32.912Z,36.30
2023-03-04T12:10:22.304Z,35.50
2023-03-04T12:13:00.893Z,36.93
2023-03-04T12:15:54.581Z,39.40
2023-03-04T12:18:30.277Z,38.20
2023-03-04T12:21:05.850Z,38.17
2023-03-04T12:23:51.207Z,43.10
2023-03-04T12:26:43.046Z,38.90
2023-03-04T12:29:29.467Z,36.37
2023-03-04T12:32:08.081Z,39.03
2023-03-04T12:34:52.687Z,42.10
2023-03-04T12:37:30.280Z,40.90
2023-03-04T12:40:11.737Z,43.63
2023-03-04T12:43:04.989Z,40.37
2023-03-04T12:45:37.696Z,22.23
2023-03-04T12:48:04.449Z,42.33
2023-03-04T12:51:08.168Z,44.80
2023-03-04T12:53:56.622Z,43.13
2023-03-04T12:56:26.230Z,43.97
2023-03-04T12:58:54.828Z,43.63
2023-03-04T13:02:07.197Z,42.50
2023-03-04T13:04:45.837Z,40.27
2023-03-04T13:07:13.131Z,41.00
2023-03-04T13:10:08.213Z,43.57
2023-03-04T13:13:27.232Z,40.63
2023-03-04T13:16:03.442Z,42.30
2023-03-04T13:18:33.454Z,39.63
2023-03-04T13:21:26.293Z,40.13
2023-03-04T13:23:53.757Z,39.03
2023-03-04T13:26:31.545Z,37.53
2023-03-04T13:29:13.406Z,39.90
2023-03-04T13:32:10.499Z,32.53
2023-03-04T13:34:51.841Z,33.40
2023-03-04T13:37:34.600Z,34.73
2023-03-04T13:40:20.614Z,33.10
2023-03-04T13:42:47.650Z,32.77
2023-03-04T13:45:31.166Z,29.27
2023-03-04T13:47:58.381Z,27.10
2023-03-04T13:50:34.455Z,26.43
2023-03-04T13:53:24.066Z,28.27
2023-03-04T13:56:18.021Z,26.47
2023-03-04T13:58:46.100Z,25.80
2023-03-04T14:01:26.480Z,23.00
2023-03-04T14:03:53.329Z,22.70
2023-03-04T14:06:23.937Z,25.13
2023-03-04T14:08:52.203Z,23.93
2023-03-04T14:11:42.366Z,22.73
2023-03-04T14:14:22.610Z,23.77
2023-03-04T14:16:53.549Z,23.83
2023-03-04T14:19:44.775Z,25.30
2023-03-04T14:22:24.981Z,25.13
2023-03-04T14:25:06.691Z,22.97
2023-03-04T14:27:36.411Z,23.73
2023-03-04T14:30:07.703Z,23.37
2023-03-04T14:32:34.916Z,26.53
2023-03-04T14:35:07.796Z,26.03
2023-03-04T14:37:44.310Z,28.90
2023-03-04T14:40:40.425Z,27.53
2023-03-04T14:43:18.056Z,32.70
2023-03-04T14:45:47.893Z,30.77
2023-03-04T14:48:32.094Z,31.57
2023-03-04T14:51:00.672Z,32.00
2023-03-04T14:53:32.878Z,26.50
2023-03-04T14:56:02.362Z,28.60
2023-03-04T14:58:51.373Z,27.37
2023-03-04T15:01:23.318Z,27.90
2023-03-04T15:04:14.015Z,26.87
2023-03-04T15:06:52.862Z,26.77
2023-03-04T15:09:22.850Z,29.27
2023-03-04T15:12:03.854Z,26.80
2023-03-04T15:14:48.928Z,27.80
2023-03-04T15:17:40.645Z,29.57
2023-03-04T15:20:07.437Z,25.63
2023-03-04T15:22:35.815Z,24.47
2023-03-04T15:25:03.707Z,23.00
2023-03-04T15:27:31.169Z,25.73
2023-03-04T15:30:00.720Z,27.60
2023-03-04T15:32:28.479Z,28.70
2023-03-04T15:34:55.945Z,22.53
2023-03-04T15:37:27.402Z,28.03
2023-03-04T15:39:56.331Z,28.57
2023-03-04T15:42:23.299Z,28.30
2023-03-04T15:44:50.146Z,28.50
2023-03-04T15:47:16.982Z,26.83
2023-03-04T15:49:47.395Z,26.93
2023-03-04T15:52:19.040Z,26.87
2023-03-04T15:54:47.998Z,31.10
2023-03-04T15:57:26.027Z,29.07
2023-03-04T15:59:53.731Z,28.73
2023-03-04T16:02:27.604Z,28.00
2023-03-04T16:04:54.811Z,31.73
2023-03-04T16:07:25.565Z,29.97
2023-03-04T16:09:57.528Z,29.93
2023-03-04T16:12:27.908Z,25.40
2023-03-04T16:14:54.988Z,26.40
2023-03-04T16:17:21.813Z,29.03
2023-03-04T16:19:48.602Z,29.10
2023-03-04T16:22:24.133Z,28.30
2023-03-04T16:24:52.204Z,29.93
2023-03-04T16:27:20.153Z,28.17
2023-03-04T16:29:46.983Z,26.80
2023-03-04T16:32:13.871Z,30.43
2023-03-04T16:34:40.688Z,29.37
2023-03-04T16:37:14.976Z,29.13
2023-03-04T16:39:46.020Z,26.00
2023-03-04T16:42:16.150Z,26.67
2023-03-04T16:44:43.431Z,29.50
2023-03-04T16:47:10.444Z,28.03
2023-03-04T16:49:37.442Z,28.10
2023-03-04T16:52:06.113Z,27.10
2023-03-04T16:54:35.810Z,27.43
2023-03-04T16:57:03.152Z,28.83
2023-03-04T16:59:30.006Z,26.40
2023-03-04T17:01:57.202Z,28.10
2023-03-04T17:04:24.777Z,29.27
2023-03-04T17:06:51.754Z,26.67
2023-03-04T17:09:18.565Z,29.90
2023-03-04T17:11:45.457Z,28.20
2023-03-04T17:14:13.116Z,27.80
2023-03-04T17:16:39.940Z,25.80
2023-03-04T17:19:06.774Z,25.43
2023-03-04T17:21:33.650Z,25.97
2023-03-04T17:24:00.584Z,26.57
2023-03-04T17:26:27.490Z,33.37
2023-03-04T17:28:54.345Z,25.67
2023-03-04T17:31:21.422Z,25.90
2023-03-04T17:33:49.884Z,28.70
2023-03-04T17:36:18.780Z,25.30
2023-03-04T17:38:46.344Z,30.83
2023-03-04T17:41:17.448Z,25.50
2023-03-04T17:43:49.437Z,29.93
2023-03-04T17:46:18.900Z,26.87
2023-03-04T17:48:45.940Z,29.47
2023-03-04T17:51:12.838Z,29.80
2023-03-04T17:53:40.006Z,28.63
2023-03-04T17:56:08.868Z,27.10
2023-03-04T17:58:36.909Z,33.70
2023-03-04T18:01:21.859Z,28.43
2023-03-04T18:03:49.292Z,29.63
2023-03-04T18:06:17.153Z,31.53
2023-03-04T18:08:44.358Z,30.57
2023-03-04T18:11:11.631Z,31.20
2023-03-04T18:13:39.459Z,34.23
2023-03-04T18:16:06.583Z,31.73
2023-03-04T18:18:33.425Z,31.77
2023-03-04T18:21:01.091Z,32.90
2023-03-04T18:23:28.691Z,29.73
2023-03-04T18:25:57.036Z,42.03
2023-03-04T18:28:24.126Z,29.07
2023-03-04T18:30:51.825Z,28.73
2023-03-04T18:33:18.748Z,34.07
2023-03-04T18:35:45.627Z,29.13
2023-03-04T18:38:12.468Z,28.13
2023-03-04T18:40:40.398Z,29.63
2023-03-04T18:43:07.637Z,31.20
2023-03-04T18:45:34.510Z,30.87
2023-03-04T18:48:09.869Z,31.27
2023-03-04T18:50:36.752Z,31.63
2023-03-04T18:53:03.683Z,32.90
2023-03-04T18:55:31.832Z,33.10
2023-03-04T18:58:01.414Z,29.07
2023-03-04T19:00:28.901Z,33.77
2023-03-04T19:03:09.343Z,29.77
2023-03-04T19:05:36.233Z,30.13
2023-03-04T19:08:03.067Z,35.00
2023-03-04T19:10:30.019Z,27.83
2023-03-04T19:12:59.451Z,29.37
2023-03-04T19:15:26.866Z,28.27
2023-03-04T19:17:53.710Z,27.23
2023-03-04T19:20:23.231Z,28.63
2023-03-04T19:22:50.826Z,27.10
2023-03-04T19:25:17.744Z,26.60
2023-03-04T19:27:44.559Z,31.60
2023-03-04T19:30:11.915Z,29.33
2023-03-04T19:32:38.734Z,30.43
2023-03-04T19:35:05.810Z,23.53
2023-03-04T19:37:32.582Z,29.63
2023-03-04T19:39:59.426Z,26.20
2023-03-04T19:42:26.356Z,30.60
2023-03-04T19:44:53.173Z,30.53
2023-03-04T19:47:20.513Z,32.17
2023-03-04T19:49:47.334Z,28.13
2023-03-04T19:52:14.106Z,26.17
2023-03-04T19:54:40.855Z,29.00
2023-03-04T19:57:07.773Z,28.30
2023-03-04T19:59:34.975Z,30.63
2023-03-04T20:02:02.947Z,28.17
2023-03-04T20:04:29.878Z,32.47
2023-03-04T20:06:56.731Z,29.10
2023-03-04T20:09:32.129Z,27.10
2023-03-04T20:12:02.143Z,28.63
2023-03-04T20:14:30.405Z,30.40
2023-03-04T20:17:04.983Z,26.60
2023-03-04T20:19:35.242Z,28.60
2023-03-04T20:22:02.591Z,29.43
2023-03-04T20:24:29.500Z,27.97
2023-03-04T20:26:59.347Z,29.70
2023-03-04T20:29:28.518Z,30.07
2023-03-04T20:31:55.380Z,28.37
2023-03-04T20:34:22.822Z,24.20
2023-03-04T20:36:49.693Z,27.20
2023-03-04T20:39:28.186Z,26.50
2023-03-04T20:41:57.527Z,26.80
2023-03-04T20:44:24.548Z,27.70
2023-03-04T20:46:51.680Z,27.10
2023-03-04T20:49:24.117Z,25.73
2023-03-04T20:51:56.157Z,29.20
2023-03-04T20:54:23.161Z,27.30
2023-03-04T20:56:50.495Z,26.00
2023-03-04T20:59:17.465Z,28.70
2023-03-04T21:01:46.146Z,26.10
2023-03-04T21:04:13.102Z,30.17
2023-03-04T21:06:40.618Z,28.30
2023-03-04T21:09:09.606Z,26.53
2023-03-04T21:11:40.369Z,27.37
2023-03-04T21:14:16.487Z,31.80
2023-03-04T21:16:43.487Z,35.20
2023-03-04T21:19:16.855Z,33.30
2023-03-04T21:21:44.825Z,28.53
2023-03-04T21:24:16.843Z,31.00
2023-03-04T21:26:47.813Z,28.60
2023-03-04T21:29:20.238Z,29.10
2023-03-04T21:31:54.563Z,28.17
2023-03-04T21:34:42.737Z,29.00
2023-03-04T21:37:10.217Z,29.60
2023-03-04T21:39:37.223Z,31.13
2023-03-04T21:42:05.185Z,29.67
2023-03-04T21:44:48.481Z,28.30
2023-03-04T21:47:16.275Z,28.87
2023-03-04T21:49:43.200Z,28.17
2023-03-04T21:52:10.040Z,28.10
2023-03-04T21:54:36.796Z,28.10
2023-03-04T21:57:03.712Z,27.40
2023-03-04T21:59:30.634Z,33.70
2023-03-04T22:01:57.788Z,29.03
2023-03-04T22:04:24.659Z,25.30
2023-03-04T22:06:51.441Z,27.87
2023-03-04T22:09:18.390Z,31.17
2023-03-04T22:11:45.278Z,30.80
2023-03-04T22:14:12.779Z,33.53
2023-03-04T22:16:55.376Z,30.97
2023-03-04T22:19:23.845Z,26.40
2023-03-04T22:21:51.718Z,31.93
2023-03-04T22:24:18.952Z,26.10
2023-03-04T22:26:45.771Z,30.20
2023-03-04T22:29:12.598Z,30.17
2023-03-04T22:31:39.492Z,28.13
2023-03-04T22:34:16.846Z,32.87
2023-03-04T22:36:45.631Z,33.77
2023-03-04T22:39:14.669Z,27.93
2023-03-04T22:41:41.609Z,32.23
2023-03-04T22:44:08.607Z,28.67
2023-03-04T22:46:38.345Z,37.07
2023-03-04T22:49:10.824Z,27.97
2023-03-04T22:51:41.407Z,29.97
2023-03-04T22:54:10.625Z,31.43
2023-03-04T22:56:39.043Z,29.37
2023-03-04T22:59:06.283Z,27.80
2023-03-04T23:01:33.104Z,30.20
2023-03-04T23:04:00.271Z,29.93
2023-03-04T23:06:31.523Z,30.50
2023-03-04T23:08:58.998Z,28.97
2023-03-04T23:11:31.942Z,28.47
2023-03-04T23:14:02.038Z,28.07
2023-03-04T23:16:29.069Z,31.07
2023-03-04T23:18:58.197Z,27.87
2023-03-04T23:21:28.206Z,29.37
2023-03-04T23:23:55.066Z,28.90
2023-03-04T23:26:28.136Z,27.27
2023-03-04T23:28:56.910Z,29.40
2023-03-04T23:31:24.309Z,28.43
2023-03-04T23:33:51.330Z,31.67
2023-03-04T23:36:18.997Z,31.53
2023-03-04T23:38:48.244Z,25.87
2023-03-04T23:41:21.394Z,28.57
2023-03-04T23:43:48.710Z,26.30
2023-03-04T23:46:16.087Z,27.27
2023-03-04T23:48:46.289Z,29.43
2023-03-04T23:51:15.738Z,29.10
2023-03-04T23:53:43.186Z,28.23
2023-03-04T23:56:13.876Z,27.80
2023-03-04T23:58:42.413Z,30.50
